KSEP

Stephenville Clark Regional Airport

Stephenville, Texas, USA
METAR KSEP 181255Z AUTO 00000KT 10SM CLR 02/01 A3011 RMK AO2 T00200010
Observed Flight Rules
Dec-18 @ 12:55 UTC (12 minutes ago) Visual Flight Rules
Visibility Clouds
10 miles
  • Clear skies
Temperatures Readings
Current 2°C / 36°F
Dewpoint 1°C / 34°F
Humidity 93%
Altimeter 30.11" Hg
Pressure 1020 hPa
Elevation 402
METAR KSEP 181255Z AUTO 00000KT 10SM CLR 02/01 A3011 RMK AO2 T00200010
Observed Flight Rules
Dec-18 @ 12:55 UTC
(12 minutes ago)
VFR
Clouds
  • Clear skies
Temperature Dewpoint
2°C / 36°F 1°C / 34°F
Humidity Altimeter Pressure
93% 30.11" Hg 1020 hPa